sensor_id;sensor_type;location;lat;lon;timestamp;temperature;humidity
10692;DHT22;5396;50.950;6.988;2023-06-10T00:00:24;19.90;99.90
10692;DHT22;5396;50.950;6.988;2023-06-10T00:02:50;19.90;99.90
10692;DHT22;5396;50.950;6.988;2023-06-10T00:05:15;19.90;99.90
10692;DHT22;5396;50.950;6.988;2023-06-10T00:07:41;19.80;99.90
10692;DHT22;5396;50.950;6.988;2023-06-10T00:10:08;19.80;99.90
10692;DHT22;5396;50.950;6.988;2023-06-10T00:12:35;19.70;99.90
10692;DHT22;5396;50.950;6.988;2023-06-10T00:15:06;19.70;99.90
10692;DHT22;5396;50.950;6.988;2023-06-10T00:17:32;19.70;99.90
10692;DHT22;5396;50.950;6.988;2023-06-10T00:19:58;19.70;99.90
10692;DHT22;5396;50.950;6.988;2023-06-10T00:22:24;19.70;99.90
10692;DHT22;5396;50.950;6.988;2023-06-10T00:24:55;19.70;99.90
10692;DHT22;5396;50.950;6.988;2023-06-10T00:27:21;19.70;99.90
10692;DHT22;5396;50.950;6.988;2023-06-10T00:29:46;19.60;99.90
10692;DHT22;5396;50.950;6.988;2023-06-10T00:32:12;19.60;99.90
10692;DHT22;5396;50.950;6.988;2023-06-10T00:34:38;19.50;99.90
10692;DHT22;5396;50.950;6.988;2023-06-10T00:37:03;19.60;99.90
10692;DHT22;5396;50.950;6.988;2023-06-10T00:39:29;19.60;99.90
10692;DHT22;5396;50.950;6.988;2023-06-10T00:41:54;19.50;99.90
10692;DHT22;5396;50.950;6.988;2023-06-10T00:44:20;19.50;99.90
10692;DHT22;5396;50.950;6.988;2023-06-10T00:46:46;19.50;99.90
10692;DHT22;5396;50.950;6.988;2023-06-10T00:49:11;19.50;99.90
10692;DHT22;5396;50.950;6.988;2023-06-10T00:51:37;19.50;99.90
10692;DHT22;5396;50.950;6.988;2023-06-10T00:54:04;19.40;99.90
10692;DHT22;5396;50.950;6.988;2023-06-10T00:56:30;19.40;99.90
10692;DHT22;5396;50.950;6.988;2023-06-10T00:58:55;19.30;99.90
10692;DHT22;5396;50.950;6.988;2023-06-10T01:01:21;19.30;99.90
10692;DHT22;5396;50.950;6.988;2023-06-10T01:03:46;19.30;99.90
10692;DHT22;5396;50.950;6.988;2023-06-10T01:06:36;19.30;99.90
10692;DHT22;5396;50.950;6.988;2023-06-10T01:09:23;19.30;99.90
10692;DHT22;5396;50.950;6.988;2023-06-10T01:12:01;19.20;99.90
10692;DHT22;5396;50.950;6.988;2023-06-10T01:14:34;19.20;99.90
10692;DHT22;5396;50.950;6.988;2023-06-10T01:17:01;19.20;99.90
10692;DHT22;5396;50.950;6.988;2023-06-10T01:19:28;19.10;99.90
10692;DHT22;5396;50.950;6.988;2023-06-10T01:21:56;19.10;99.90
10692;DHT22;5396;50.950;6.988;2023-06-10T01:24:23;19.10;99.90
10692;DHT22;5396;50.950;6.988;2023-06-10T01:26:50;19.10;99.90
10692;DHT22;5396;50.950;6.988;2023-06-10T01:29:24;19.10;99.90
10692;DHT22;5396;50.950;6.988;2023-06-10T01:32:01;19.10;99.90
10692;DHT22;5396;50.950;6.988;2023-06-10T01:34:28;19.00;99.90
10692;DHT22;5396;50.950;6.988;2023-06-10T01:36:57;19.00;99.90
10692;DHT22;5396;50.950;6.988;2023-06-10T01:39:24;18.90;99.90
10692;DHT22;5396;50.950;6.988;2023-06-10T01:41:51;18.90;99.90
10692;DHT22;5396;50.950;6.988;2023-06-10T01:44:19;18.90;99.90
10692;DHT22;5396;50.950;6.988;2023-06-10T01:46:45;18.80;99.90
10692;DHT22;5396;50.950;6.988;2023-06-10T01:49:10;18.80;99.90
10692;DHT22;5396;50.950;6.988;2023-06-10T01:51:36;18.80;99.90
10692;DHT22;5396;50.950;6.988;2023-06-10T01:54:01;18.80;99.90
10692;DHT22;5396;50.950;6.988;2023-06-10T01:56:27;18.80;99.90
10692;DHT22;5396;50.950;6.988;2023-06-10T01:58:52;18.80;99.90
10692;DHT22;5396;50.950;6.988;2023-06-10T02:01:24;18.80;99.90
10692;DHT22;5396;50.950;6.988;2023-06-10T02:03:50;18.80;99.90
10692;DHT22;5396;50.950;6.988;2023-06-10T02:06:15;18.80;99.90
10692;DHT22;5396;50.950;6.988;2023-06-10T02:08:41;18.70;99.90
10692;DHT22;5396;50.950;6.988;2023-06-10T02:11:07;18.70;99.90
10692;DHT22;5396;50.950;6.988;2023-06-10T02:13:32;18.70;99.90
10692;DHT22;5396;50.950;6.988;2023-06-10T02:15:58;18.70;99.90
10692;DHT22;5396;50.950;6.988;2023-06-10T02:18:25;18.60;99.90
10692;DHT22;5396;50.950;6.988;2023-06-10T02:20:52;18.60;99.90
10692;DHT22;5396;50.950;6.988;2023-06-10T02:23:18;18.60;99.90
10692;DHT22;5396;50.950;6.988;2023-06-10T02:25:43;18.60;99.90
10692;DHT22;5396;50.950;6.988;2023-06-10T02:28:09;18.60;99.90
10692;DHT22;5396;50.950;6.988;2023-06-10T02:30:34;18.60;99.90
10692;DHT22;5396;50.950;6.988;2023-06-10T02:33:00;18.50;99.90
10692;DHT22;5396;50.950;6.988;2023-06-10T02:35:27;18.50;99.90
10692;DHT22;5396;50.950;6.988;2023-06-10T02:37:52;18.40;99.90
10692;DHT22;5396;50.950;6.988;2023-06-10T02:40:18;18.40;99.90
10692;DHT22;5396;50.950;6.988;2023-06-10T02:42:43;18.40;99.90
10692;DHT22;5396;50.950;6.988;2023-06-10T02:45:09;18.40;99.90
10692;DHT22;5396;50.950;6.988;2023-06-10T02:47:37;18.40;99.90
10692;DHT22;5396;50.950;6.988;2023-06-10T02:50:02;18.30;99.90
10692;DHT22;5396;50.950;6.988;2023-06-10T02:52:29;18.30;99.90
10692;DHT22;5396;50.950;6.988;2023-06-10T02:54:55;18.20;99.90
10692;DHT22;5396;50.950;6.988;2023-06-10T02:57:21;18.20;99.90
10692;DHT22;5396;50.950;6.988;2023-06-10T02:59:46;18.20;99.90
10692;DHT22;5396;50.950;6.988;2023-06-10T03:02:12;18.20;99.90
10692;DHT22;5396;50.950;6.988;2023-06-10T03:04:39;18.20;99.90
10692;DHT22;5396;50.950;6.988;2023-06-10T03:07:04;18.20;99.90
10692;DHT22;5396;50.950;6.988;2023-06-10T03:09:32;18.20;99.90
10692;DHT22;5396;50.950;6.988;2023-06-10T03:11:58;18.20;99.90
10692;DHT22;5396;50.950;6.988;2023-06-10T03:14:25;18.10;99.90
10692;DHT22;5396;50.950;6.988;2023-06-10T03:16:51;18.10;99.90
10692;DHT22;5396;50.950;6.988;2023-06-10T03:19:16;18.10;99.90
10692;DHT22;5396;50.950;6.988;2023-06-10T03:21:45;18.00;99.90
10692;DHT22;5396;50.950;6.988;2023-06-10T03:24:11;18.00;99.90
10692;DHT22;5396;50.950;6.988;2023-06-10T03:26:37;18.00;99.90
10692;DHT22;5396;50.950;6.988;2023-06-10T03:29:02;18.00;99.90
10692;DHT22;5396;50.950;6.988;2023-06-10T03:31:28;18.00;99.90
10692;DHT22;5396;50.950;6.988;2023-06-10T03:33:54;18.00;99.90
10692;DHT22;5396;50.950;6.988;2023-06-10T03:36:20;18.00;99.90
10692;DHT22;5396;50.950;6.988;2023-06-10T03:38:46;18.00;99.90
10692;DHT22;5396;50.950;6.988;2023-06-10T03:41:13;18.00;99.90
10692;DHT22;5396;50.950;6.988;2023-06-10T03:43:38;18.00;99.90
10692;DHT22;5396;50.950;6.988;2023-06-10T03:46:05;18.00;99.90
10692;DHT22;5396;50.950;6.988;2023-06-10T03:48:31;18.00;99.90
10692;DHT22;5396;50.950;6.988;2023-06-10T03:50:57;18.00;99.90
10692;DHT22;5396;50.950;6.988;2023-06-10T03:53:23;18.10;99.90
10692;DHT22;5396;50.950;6.988;2023-06-10T03:55:49;18.10;99.90
10692;DHT22;5396;50.950;6.988;2023-06-10T03:58:14;18.20;99.90
10692;DHT22;5396;50.950;6.988;2023-06-10T04:00:40;18.20;99.90
10692;DHT22;5396;50.950;6.988;2023-06-10T04:03:09;18.20;99.90
10692;DHT22;5396;50.950;6.988;2023-06-10T04:05:40;18.20;99.90
10692;DHT22;5396;50.950;6.988;2023-06-10T04:08:06;18.20;99.90
10692;DHT22;5396;50.950;6.988;2023-06-10T04:10:32;18.30;99.90
10692;DHT22;5396;50.950;6.988;2023-06-10T04:12:57;18.30;99.90
10692;DHT22;5396;50.950;6.988;2023-06-10T04:15:23;18.20;99.90
10692;DHT22;5396;50.950;6.988;2023-06-10T04:17:49;18.20;99.90
10692;DHT22;5396;50.950;6.988;2023-06-10T04:20:14;18.30;99.90
10692;DHT22;5396;50.950;6.988;2023-06-10T04:22:42;18.20;99.90
10692;DHT22;5396;50.950;6.988;2023-06-10T04:25:09;18.20;99.90
10692;DHT22;5396;50.950;6.988;2023-06-10T04:27:35;18.20;99.90
10692;DHT22;5396;50.950;6.988;2023-06-10T04:30:02;18.20;99.90
10692;DHT22;5396;50.950;6.988;2023-06-10T04:32:29;18.20;99.90
10692;DHT22;5396;50.950;6.988;2023-06-10T04:34:55;18.20;99.90
10692;DHT22;5396;50.950;6.988;2023-06-10T04:37:21;18.30;99.90
10692;DHT22;5396;50.950;6.988;2023-06-10T04:39:47;18.30;99.90
10692;DHT22;5396;50.950;6.988;2023-06-10T04:42:12;18.30;99.90
10692;DHT22;5396;50.950;6.988;2023-06-10T04:44:38;18.30;99.90
10692;DHT22;5396;50.950;6.988;2023-06-10T04:47:04;18.40;99.90
10692;DHT22;5396;50.950;6.988;2023-06-10T04:49:30;18.40;99.90
10692;DHT22;5396;50.950;6.988;2023-06-10T04:51:55;18.40;99.90
10692;DHT22;5396;50.950;6.988;2023-06-10T04:54:21;18.60;99.90
10692;DHT22;5396;50.950;6.988;2023-06-10T04:56:46;18.70;99.90
10692;DHT22;5396;50.950;6.988;2023-06-10T04:59:12;18.80;99.90
10692;DHT22;5396;50.950;6.988;2023-06-10T05:01:39;18.80;99.90
10692;DHT22;5396;50.950;6.988;2023-06-10T05:04:05;18.90;99.90
10692;DHT22;5396;50.950;6.988;2023-06-10T05:06:30;19.00;99.90
10692;DHT22;5396;50.950;6.988;2023-06-10T05:08:56;19.00;99.90
10692;DHT22;5396;50.950;6.988;2023-06-10T05:11:21;19.00;99.90
10692;DHT22;5396;50.950;6.988;2023-06-10T05:13:47;19.10;99.90
10692;DHT22;5396;50.950;6.988;2023-06-10T05:16:14;19.20;99.90
10692;DHT22;5396;50.950;6.988;2023-06-10T05:18:40;19.20;99.90
10692;DHT22;5396;50.950;6.988;2023-06-10T05:21:06;19.30;99.90
10692;DHT22;5396;50.950;6.988;2023-06-10T05:23:32;19.30;99.90
10692;DHT22;5396;50.950;6.988;2023-06-10T05:25:58;19.30;99.90
10692;DHT22;5396;50.950;6.988;2023-06-10T05:28:25;19.40;99.90
10692;DHT22;5396;50.950;6.988;2023-06-10T05:30:51;19.40;99.90
10692;DHT22;5396;50.950;6.988;2023-06-10T05:33:16;19.50;99.90
10692;DHT22;5396;50.950;6.988;2023-06-10T05:35:42;19.50;99.90
10692;DHT22;5396;50.950;6.988;2023-06-10T05:38:08;19.60;99.90
10692;DHT22;5396;50.950;6.988;2023-06-10T05:40:33;19.60;99.90
10692;DHT22;5396;50.950;6.988;2023-06-10T05:42:59;19.70;99.90
10692;DHT22;5396;50.950;6.988;2023-06-10T05:45:24;19.70;99.90
10692;DHT22;5396;50.950;6.988;2023-06-10T05:47:50;19.80;99.90
10692;DHT22;5396;50.950;6.988;2023-06-10T05:50:16;19.80;99.90
10692;DHT22;5396;50.950;6.988;2023-06-10T05:52:41;19.90;99.90
10692;DHT22;5396;50.950;6.988;2023-06-10T05:55:07;20.00;99.90
10692;DHT22;5396;50.950;6.988;2023-06-10T05:57:33;20.00;99.90
10692;DHT22;5396;50.950;6.988;2023-06-10T05:59:59;20.10;99.90
10692;DHT22;5396;50.950;6.988;2023-06-10T06:02:25;20.20;99.90
10692;DHT22;5396;50.950;6.988;2023-06-10T06:04:50;20.30;99.90
10692;DHT22;5396;50.950;6.988;2023-06-10T06:07:16;20.30;99.90
10692;DHT22;5396;50.950;6.988;2023-06-10T06:09:41;20.40;99.90
10692;DHT22;5396;50.950;6.988;2023-06-10T06:12:08;20.40;99.90
10692;DHT22;5396;50.950;6.988;2023-06-10T06:14:37;20.50;99.90
10692;DHT22;5396;50.950;6.988;2023-06-10T06:17:03;20.60;99.90
10692;DHT22;5396;50.950;6.988;2023-06-10T06:19:29;20.70;99.90
10692;DHT22;5396;50.950;6.988;2023-06-10T06:21:54;20.70;99.90
10692;DHT22;5396;50.950;6.988;2023-06-10T06:24:20;20.80;99.90
10692;DHT22;5396;50.950;6.988;2023-06-10T06:26:46;20.90;99.90
10692;DHT22;5396;50.950;6.988;2023-06-10T06:29:11;21.00;99.90
10692;DHT22;5396;50.950;6.988;2023-06-10T06:31:37;21.10;99.90
10692;DHT22;5396;50.950;6.988;2023-06-10T06:34:03;21.10;99.90
10692;DHT22;5396;50.950;6.988;2023-06-10T06:36:28;21.20;99.90
10692;DHT22;5396;50.950;6.988;2023-06-10T06:38:54;21.30;99.90
10692;DHT22;5396;50.950;6.988;2023-06-10T06:41:20;21.40;99.90
10692;DHT22;5396;50.950;6.988;2023-06-10T06:43:47;21.50;99.90
10692;DHT22;5396;50.950;6.988;2023-06-10T06:46:13;21.50;99.90
10692;DHT22;5396;50.950;6.988;2023-06-10T06:48:38;21.60;99.90
10692;DHT22;5396;50.950;6.988;2023-06-10T06:51:04;21.70;99.90
10692;DHT22;5396;50.950;6.988;2023-06-10T06:53:29;21.70;99.90
10692;DHT22;5396;50.950;6.988;2023-06-10T06:55:55;21.80;99.90
10692;DHT22;5396;50.950;6.988;2023-06-10T06:58:20;21.90;99.90
10692;DHT22;5396;50.950;6.988;2023-06-10T07:00:46;22.00;99.90
10692;DHT22;5396;50.950;6.988;2023-06-10T07:03:12;22.10;99.90
10692;DHT22;5396;50.950;6.988;2023-06-10T07:05:38;22.20;99.90
10692;DHT22;5396;50.950;6.988;2023-06-10T07:08:04;22.20;99.90
10692;DHT22;5396;50.950;6.988;2023-06-10T07:10:29;22.30;99.90
10692;DHT22;5396;50.950;6.988;2023-06-10T07:12:55;22.40;99.90
10692;DHT22;5396;50.950;6.988;2023-06-10T07:15:21;22.40;99.90
10692;DHT22;5396;50.950;6.988;2023-06-10T07:17:46;22.50;99.90
10692;DHT22;5396;50.950;6.988;2023-06-10T07:20:12;22.60;99.90
10692;DHT22;5396;50.950;6.988;2023-06-10T07:22:40;22.70;99.90
10692;DHT22;5396;50.950;6.988;2023-06-10T07:25:06;22.80;99.90
10692;DHT22;5396;50.950;6.988;2023-06-10T07:27:33;22.90;99.90
10692;DHT22;5396;50.950;6.988;2023-06-10T07:29:58;23.00;99.90
10692;DHT22;5396;50.950;6.988;2023-06-10T07:32:26;23.00;99.90
10692;DHT22;5396;50.950;6.988;2023-06-10T07:34:51;23.10;99.90
10692;DHT22;5396;50.950;6.988;2023-06-10T07:37:18;23.10;99.90
10692;DHT22;5396;50.950;6.988;2023-06-10T07:39:45;23.20;99.90
10692;DHT22;5396;50.950;6.988;2023-06-10T07:42:10;23.30;99.90
10692;DHT22;5396;50.950;6.988;2023-06-10T07:44:36;23.30;99.90
10692;DHT22;5396;50.950;6.988;2023-06-10T07:47:01;23.40;99.90
10692;DHT22;5396;50.950;6.988;2023-06-10T07:49:28;23.40;99.90
10692;DHT22;5396;50.950;6.988;2023-06-10T07:51:54;23.50;99.90
10692;DHT22;5396;50.950;6.988;2023-06-10T07:54:21;23.60;99.90
10692;DHT22;5396;50.950;6.988;2023-06-10T07:56:46;23.70;99.90
10692;DHT22;5396;50.950;6.988;2023-06-10T07:59:13;23.80;99.90
10692;DHT22;5396;50.950;6.988;2023-06-10T08:01:39;23.70;99.90
10692;DHT22;5396;50.950;6.988;2023-06-10T08:04:05;23.80;99.90
10692;DHT22;5396;50.950;6.988;2023-06-10T08:06:31;23.90;99.90
10692;DHT22;5396;50.950;6.988;2023-06-10T08:08:57;24.00;99.90
10692;DHT22;5396;50.950;6.988;2023-06-10T08:11:22;24.00;99.90
10692;DHT22;5396;50.950;6.988;2023-06-10T08:13:48;24.00;99.90
10692;DHT22;5396;50.950;6.988;2023-06-10T08:16:13;24.10;99.90
10692;DHT22;5396;50.950;6.988;2023-06-10T08:18:39;24.20;99.90
10692;DHT22;5396;50.950;6.988;2023-06-10T08:21:05;24.20;99.90
10692;DHT22;5396;50.950;6.988;2023-06-10T08:23:30;24.30;99.90
10692;DHT22;5396;50.950;6.988;2023-06-10T08:25:56;24.40;99.90
10692;DHT22;5396;50.950;6.988;2023-06-10T08:28:22;24.40;99.90
10692;DHT22;5396;50.950;6.988;2023-06-10T08:30:47;24.50;99.90
10692;DHT22;5396;50.950;6.988;2023-06-10T08:33:13;24.50;99.90
10692;DHT22;5396;50.950;6.988;2023-06-10T08:35:39;24.50;99.90
10692;DHT22;5396;50.950;6.988;2023-06-10T08:38:04;24.60;99.90
10692;DHT22;5396;50.950;6.988;2023-06-10T08:40:30;24.60;99.90
10692;DHT22;5396;50.950;6.988;2023-06-10T08:43:10;24.70;99.90
10692;DHT22;5396;50.950;6.988;2023-06-10T08:45:37;24.80;99.90
10692;DHT22;5396;50.950;6.988;2023-06-10T08:48:03;24.90;99.90
10692;DHT22;5396;50.950;6.988;2023-06-10T08:50:36;24.90;99.90
10692;DHT22;5396;50.950;6.988;2023-06-10T08:53:06;25.00;99.90
10692;DHT22;5396;50.950;6.988;2023-06-10T08:55:36;25.10;99.90
10692;DHT22;5396;50.950;6.988;2023-06-10T08:58:03;25.20;99.90
10692;DHT22;5396;50.950;6.988;2023-06-10T09:00:30;25.30;99.90
10692;DHT22;5396;50.950;6.988;2023-06-10T09:02:57;25.40;99.90
10692;DHT22;5396;50.950;6.988;2023-06-10T09:05:24;25.40;99.90
10692;DHT22;5396;50.950;6.988;2023-06-10T09:07:52;25.50;99.90
10692;DHT22;5396;50.950;6.988;2023-06-10T09:10:18;25.50;99.90
10692;DHT22;5396;50.950;6.988;2023-06-10T09:12:44;25.50;99.90
10692;DHT22;5396;50.950;6.988;2023-06-10T09:15:10;25.60;99.90
10692;DHT22;5396;50.950;6.988;2023-06-10T09:17:37;25.70;99.90
10692;DHT22;5396;50.950;6.988;2023-06-10T09:20:03;25.80;99.90
10692;DHT22;5396;50.950;6.988;2023-06-10T09:22:29;25.90;99.90
10692;DHT22;5396;50.950;6.988;2023-06-10T09:25:09;26.00;99.90
10692;DHT22;5396;50.950;6.988;2023-06-10T09:27:52;26.00;99.90
10692;DHT22;5396;50.950;6.988;2023-06-10T09:30:32;26.10;99.90
10692;DHT22;5396;50.950;6.988;2023-06-10T09:33:01;26.30;99.90
10692;DHT22;5396;50.950;6.988;2023-06-10T09:35:30;26.50;99.90
10692;DHT22;5396;50.950;6.988;2023-06-10T09:37:58;26.60;99.90
10692;DHT22;5396;50.950;6.988;2023-06-10T09:40:24;26.70;99.90
10692;DHT22;5396;50.950;6.988;2023-06-10T09:42:58;26.80;99.90
10692;DHT22;5396;50.950;6.988;2023-06-10T09:45:31;26.90;99.90
10692;DHT22;5396;50.950;6.988;2023-06-10T09:47:57;27.00;99.90
10692;DHT22;5396;50.950;6.988;2023-06-10T09:50:22;27.00;99.90
10692;DHT22;5396;50.950;6.988;2023-06-10T09:52:49;27.10;99.90
10692;DHT22;5396;50.950;6.988;2023-06-10T09:55:16;27.20;99.90
10692;DHT22;5396;50.950;6.988;2023-06-10T09:57:42;27.10;99.90
10692;DHT22;5396;50.950;6.988;2023-06-10T10:00:11;27.10;99.90
10692;DHT22;5396;50.950;6.988;2023-06-10T10:02:49;27.10;99.90
10692;DHT22;5396;50.950;6.988;2023-06-10T10:05:17;27.30;99.90
10692;DHT22;5396;50.950;6.988;2023-06-10T10:07:43;27.40;99.90
10692;DHT22;5396;50.950;6.988;2023-06-10T10:10:10;27.50;99.90
10692;DHT22;5396;50.950;6.988;2023-06-10T10:12:39;27.70;99.90
10692;DHT22;5396;50.950;6.988;2023-06-10T10:15:07;27.70;99.90
10692;DHT22;5396;50.950;6.988;2023-06-10T10:17:37;27.60;99.90
10692;DHT22;5396;50.950;6.988;2023-06-10T10:20:05;27.70;99.90
10692;DHT22;5396;50.950;6.988;2023-06-10T10:22:38;27.80;99.90
10692;DHT22;5396;50.950;6.988;2023-06-10T10:25:16;27.90;99.90
10692;DHT22;5396;50.950;6.988;2023-06-10T10:27:48;28.00;99.90
10692;DHT22;5396;50.950;6.988;2023-06-10T10:30:17;28.10;99.90
10692;DHT22;5396;50.950;6.988;2023-06-10T10:32:52;28.10;99.90
10692;DHT22;5396;50.950;6.988;2023-06-10T10:35:22;28.20;99.90
10692;DHT22;5396;50.950;6.988;2023-06-10T10:37:49;28.20;99.90
10692;DHT22;5396;50.950;6.988;2023-06-10T10:40:16;28.10;99.90
10692;DHT22;5396;50.950;6.988;2023-06-10T10:42:43;28.20;99.90
10692;DHT22;5396;50.950;6.988;2023-06-10T10:45:10;28.30;99.90
10692;DHT22;5396;50.950;6.988;2023-06-10T10:47:36;28.50;99.90
10692;DHT22;5396;50.950;6.988;2023-06-10T10:50:13;28.60;99.90
10692;DHT22;5396;50.950;6.988;2023-06-10T10:52:53;28.80;99.90
10692;DHT22;5396;50.950;6.988;2023-06-10T10:55:20;29.00;99.90
10692;DHT22;5396;50.950;6.988;2023-06-10T11:00:36;29.10;99.90
10692;DHT22;5396;50.950;6.988;2023-06-10T11:05:48;29.30;99.90
10692;DHT22;5396;50.950;6.988;2023-06-10T11:08:15;29.50;99.90
10692;DHT22;5396;50.950;6.988;2023-06-10T11:10:50;29.70;99.90
10692;DHT22;5396;50.950;6.988;2023-06-10T11:13:20;29.80;99.90
10692;DHT22;5396;50.950;6.988;2023-06-10T11:15:48;30.00;99.90
10692;DHT22;5396;50.950;6.988;2023-06-10T11:18:23;30.20;99.90
10692;DHT22;5396;50.950;6.988;2023-06-10T11:20:59;30.20;99.90
10692;DHT22;5396;50.950;6.988;2023-06-10T11:26:13;30.10;99.90
10692;DHT22;5396;50.950;6.988;2023-06-10T11:28:40;29.70;99.90
10692;DHT22;5396;50.950;6.988;2023-06-10T11:31:06;29.40;99.90
10692;DHT22;5396;50.950;6.988;2023-06-10T11:33:32;29.10;99.90
10692;DHT22;5396;50.950;6.988;2023-06-10T11:35:58;29.00;99.90
10692;DHT22;5396;50.950;6.988;2023-06-10T11:38:24;28.90;99.90
10692;DHT22;5396;50.950;6.988;2023-06-10T11:40:51;28.80;99.90
10692;DHT22;5396;50.950;6.988;2023-06-10T11:43:20;28.50;99.90
10692;DHT22;5396;50.950;6.988;2023-06-10T11:45:46;28.60;99.90
10692;DHT22;5396;50.950;6.988;2023-06-10T11:48:12;28.50;99.90
10692;DHT22;5396;50.950;6.988;2023-06-10T11:50:38;28.50;99.90
10692;DHT22;5396;50.950;6.988;2023-06-10T11:53:04;28.50;99.90
10692;DHT22;5396;50.950;6.988;2023-06-10T11:55:42;28.50;99.90
10692;DHT22;5396;50.950;6.988;2023-06-10T11:58:21;28.60;99.90
10692;DHT22;5396;50.950;6.988;2023-06-10T12:00:52;28.60;99.90
10692;DHT22;5396;50.950;6.988;2023-06-10T12:03:27;28.70;99.90
10692;DHT22;5396;50.950;6.988;2023-06-10T12:06:02;28.50;99.90
10692;DHT22;5396;50.950;6.988;2023-06-10T12:08:29;28.60;99.90
10692;DHT22;5396;50.950;6.988;2023-06-10T12:10:55;28.70;99.90
10692;DHT22;5396;50.950;6.988;2023-06-10T12:13:22;28.90;99.90
10692;DHT22;5396;50.950;6.988;2023-06-10T12:15:49;29.00;99.90
10692;DHT22;5396;50.950;6.988;2023-06-10T12:18:23;29.00;99.90
10692;DHT22;5396;50.950;6.988;2023-06-10T12:20:49;29.00;99.90
10692;DHT22;5396;50.950;6.988;2023-06-10T12:23:16;29.10;99.90
10692;DHT22;5396;50.950;6.988;2023-06-10T12:25:52;29.40;99.90
10692;DHT22;5396;50.950;6.988;2023-06-10T12:28:24;29.80;99.90
10692;DHT22;5396;50.950;6.988;2023-06-10T12:30:50;29.90;99.90
10692;DHT22;5396;50.950;6.988;2023-06-10T12:33:20;30.10;99.90
10692;DHT22;5396;50.950;6.988;2023-06-10T12:35:52;30.20;99.90
10692;DHT22;5396;50.950;6.988;2023-06-10T12:38:22;30.70;99.90
10692;DHT22;5396;50.950;6.988;2023-06-10T12:40:48;30.40;99.90
10692;DHT22;5396;50.950;6.988;2023-06-10T12:43:25;30.10;99.90
10692;DHT22;5396;50.950;6.988;2023-06-10T12:45:52;30.20;99.90
10692;DHT22;5396;50.950;6.988;2023-06-10T12:48:21;31.20;99.90
10692;DHT22;5396;50.950;6.988;2023-06-10T12:50:53;32.70;99.90
10692;DHT22;5396;50.950;6.988;2023-06-10T12:53:20;33.90;99.90
10692;DHT22;5396;50.950;6.988;2023-06-10T12:55:46;34.90;99.90
10692;DHT22;5396;50.950;6.988;2023-06-10T12:58:13;35.30;99.90
10692;DHT22;5396;50.950;6.988;2023-06-10T13:00:39;35.90;99.90
10692;DHT22;5396;50.950;6.988;2023-06-10T13:03:05;36.00;99.90
10692;DHT22;5396;50.950;6.988;2023-06-10T13:05:32;35.80;99.90
10692;DHT22;5396;50.950;6.988;2023-06-10T13:07:59;35.60;99.90
10692;DHT22;5396;50.950;6.988;2023-06-10T13:10:25;36.60;99.90
10692;DHT22;5396;50.950;6.988;2023-06-10T13:12:51;37.00;99.90
10692;DHT22;5396;50.950;6.988;2023-06-10T13:15:17;36.80;99.90
10692;DHT22;5396;50.950;6.988;2023-06-10T13:17:44;36.10;99.90
10692;DHT22;5396;50.950;6.988;2023-06-10T13:20:11;34.80;99.90
10692;DHT22;5396;50.950;6.988;2023-06-10T13:22:36;34.00;99.90
10692;DHT22;5396;50.950;6.988;2023-06-10T13:25:03;33.30;99.90
10692;DHT22;5396;50.950;6.988;2023-06-10T13:27:29;32.40;99.90
10692;DHT22;5396;50.950;6.988;2023-06-10T13:29:55;31.40;99.90
10692;DHT22;5396;50.950;6.988;2023-06-10T13:32:20;31.70;99.90
10692;DHT22;5396;50.950;6.988;2023-06-10T13:34:46;32.30;99.90
10692;DHT22;5396;50.950;6.988;2023-06-10T13:37:12;32.20;99.90
10692;DHT22;5396;50.950;6.988;2023-06-10T13:39:38;32.60;99.90
10692;DHT22;5396;50.950;6.988;2023-06-10T13:42:05;33.10;99.90
10692;DHT22;5396;50.950;6.988;2023-06-10T13:44:31;33.00;99.90
10692;DHT22;5396;50.950;6.988;2023-06-10T13:46:59;32.30;99.90
10692;DHT22;5396;50.950;6.988;2023-06-10T13:49:25;31.30;99.90
10692;DHT22;5396;50.950;6.988;2023-06-10T13:51:51;30.80;99.90
10692;DHT22;5396;50.950;6.988;2023-06-10T13:54:16;30.50;99.90
10692;DHT22;5396;50.950;6.988;2023-06-10T13:56:42;31.30;99.90
10692;DHT22;5396;50.950;6.988;2023-06-10T13:59:07;33.00;99.90
10692;DHT22;5396;50.950;6.988;2023-06-10T14:01:33;34.90;99.90
10692;DHT22;5396;50.950;6.988;2023-06-10T14:03:59;36.30;99.90
10692;DHT22;5396;50.950;6.988;2023-06-10T14:06:26;37.40;99.90
10692;DHT22;5396;50.950;6.988;2023-06-10T14:08:51;38.10;99.90
10692;DHT22;5396;50.950;6.988;2023-06-10T14:11:20;38.50;99.90
10692;DHT22;5396;50.950;6.988;2023-06-10T14:13:46;38.80;99.90
10692;DHT22;5396;50.950;6.988;2023-06-10T14:16:12;39.20;99.90
10692;DHT22;5396;50.950;6.988;2023-06-10T14:18:37;39.10;99.90
10692;DHT22;5396;50.950;6.988;2023-06-10T14:21:03;39.40;99.90
10692;DHT22;5396;50.950;6.988;2023-06-10T14:23:28;39.50;99.90
10692;DHT22;5396;50.950;6.988;2023-06-10T14:25:54;39.90;99.90
10692;DHT22;5396;50.950;6.988;2023-06-10T14:28:20;40.20;99.90
10692;DHT22;5396;50.950;6.988;2023-06-10T14:30:45;40.50;99.90
10692;DHT22;5396;50.950;6.988;2023-06-10T14:33:11;41.00;99.90
10692;DHT22;5396;50.950;6.988;2023-06-10T14:35:36;40.60;99.90
10692;DHT22;5396;50.950;6.988;2023-06-10T14:38:02;40.40;99.90
10692;DHT22;5396;50.950;6.988;2023-06-10T14:40:28;39.90;99.90
10692;DHT22;5396;50.950;6.988;2023-06-10T14:42:57;39.30;99.90
10692;DHT22;5396;50.950;6.988;2023-06-10T14:45:23;38.40;99.90
10692;DHT22;5396;50.950;6.988;2023-06-10T14:47:50;38.00;99.90
10692;DHT22;5396;50.950;6.988;2023-06-10T14:50:16;37.60;99.90
10692;DHT22;5396;50.950;6.988;2023-06-10T14:52:42;37.40;99.90
10692;DHT22;5396;50.950;6.988;2023-06-10T14:55:07;37.20;99.90
10692;DHT22;5396;50.950;6.988;2023-06-10T14:57:33;36.80;99.90
10692;DHT22;5396;50.950;6.988;2023-06-10T14:59:59;35.70;99.90
10692;DHT22;5396;50.950;6.988;2023-06-10T15:02:24;34.50;99.90
10692;DHT22;5396;50.950;6.988;2023-06-10T15:04:51;33.70;99.90
10692;DHT22;5396;50.950;6.988;2023-06-10T15:07:16;33.00;99.90
10692;DHT22;5396;50.950;6.988;2023-06-10T15:09:43;32.60;99.90
10692;DHT22;5396;50.950;6.988;2023-06-10T15:12:09;32.60;99.90
10692;DHT22;5396;50.950;6.988;2023-06-10T15:14:34;32.50;99.90
10692;DHT22;5396;50.950;6.988;2023-06-10T15:17:00;32.30;99.90
10692;DHT22;5396;50.950;6.988;2023-06-10T15:19:26;32.20;99.90
10692;DHT22;5396;50.950;6.988;2023-06-10T15:21:52;32.10;99.90
10692;DHT22;5396;50.950;6.988;2023-06-10T15:24:18;32.00;99.90
10692;DHT22;5396;50.950;6.988;2023-06-10T15:26:44;32.00;99.90
10692;DHT22;5396;50.950;6.988;2023-06-10T15:29:10;31.70;99.90
10692;DHT22;5396;50.950;6.988;2023-06-10T15:31:35;31.40;99.90
10692;DHT22;5396;50.950;6.988;2023-06-10T15:34:01;31.10;99.90
10692;DHT22;5396;50.950;6.988;2023-06-10T15:36:27;31.00;99.90
10692;DHT22;5396;50.950;6.988;2023-06-10T15:38:54;31.00;99.90
10692;DHT22;5396;50.950;6.988;2023-06-10T15:41:21;30.80;99.90
10692;DHT22;5396;50.950;6.988;2023-06-10T15:43:47;30.40;99.90
10692;DHT22;5396;50.950;6.988;2023-06-10T15:46:13;30.20;99.90
10692;DHT22;5396;50.950;6.988;2023-06-10T15:48:38;29.90;99.90
10692;DHT22;5396;50.950;6.988;2023-06-10T15:51:04;29.70;99.90